首页
METAR-TAF:

METAR-TAF

机场 :

道森克里克, 不列颠哥伦比亚, 加拿大

纬度: 55-45N, 经度: 120-11W, 海拔: 655米

当前天气观测

该预报发布于36分钟前的23:00 UTC
风速12节,风向西,有时为17节阵风
温度 3°C
湿度 35%
气压 1016 hPa
能見度: 14.5公里
少量云层高于8500英尺

METAR: CYDQ 072300Z AUTO 27012G17KT 9SM FEW085 03/M11 A2999 RMK SLP189

时间: 16:36 (23:36 UTC)

预报

该预报发布于4小时和58分钟前的18:38 UTC
预报有效从07日的 19点(UTC)到 08日的 05点(UTC)
风速15节,风向西,有时为25节阵风
能見度: 10公里
散云层高于7000英尺
短暂存在
从 07日的 19点(UTC)到 08日的 05点(UTC)
多云层高于7000英尺

TAF: CYDQ 071838Z 0719/0805 28015G25KT P6SM SCT070 TEMPO 0719/0805 BKN070 RMK FCST BASED ON AUTO OBS. NXT FCST BY 080100Z

超过4000个机场的气象观测和天气预报(METAR&TAF报告)。

可查询的气象台以黄色和红色小点在地图上表示。

将鼠标移到小点上方,可查看气象台名称。

然后点击查看天气观测和预报。

如需切换地图:点击带黑十字的绿色按钮放大地图;点击带横线的绿色按钮缩小地图;或者点击绿色箭头查看邻近地区的地图。


METAR-TAF: